sensor_id;sensor_type;location;lat;lon;timestamp;P1;durP1;ratioP1;P2;durP2;ratioP2
48845;SDS011;34665;51.886;5.436;2022-08-19T00:01:40;12.93;;;10.00;;
48845;SDS011;34665;51.886;5.436;2022-08-19T00:04:08;13.73;;;9.97;;
48845;SDS011;34665;51.886;5.436;2022-08-19T00:06:36;15.90;;;10.17;;
48845;SDS011;34665;51.886;5.436;2022-08-19T00:09:03;17.83;;;11.37;;
48845;SDS011;34665;51.886;5.436;2022-08-19T00:11:31;17.50;;;10.57;;
48845;SDS011;34665;51.886;5.436;2022-08-19T00:16:23;14.40;;;9.73;;
48845;SDS011;34665;51.886;5.436;2022-08-19T00:18:50;17.40;;;11.00;;
48845;SDS011;34665;51.886;5.436;2022-08-19T00:21:15;13.90;;;9.98;;
48845;SDS011;34665;51.886;5.436;2022-08-19T00:23:41;17.08;;;10.77;;
48845;SDS011;34665;51.886;5.436;2022-08-19T00:26:08;13.47;;;10.03;;
48845;SDS011;34665;51.886;5.436;2022-08-19T00:28:35;16.40;;;9.60;;
48845;SDS011;34665;51.886;5.436;2022-08-19T00:33:29;17.37;;;10.63;;
48845;SDS011;34665;51.886;5.436;2022-08-19T00:35:58;16.10;;;11.43;;
48845;SDS011;34665;51.886;5.436;2022-08-19T00:38:30;13.93;;;10.07;;
48845;SDS011;34665;51.886;5.436;2022-08-19T00:43:22;14.97;;;10.37;;
48845;SDS011;34665;51.886;5.436;2022-08-19T00:45:49;18.13;;;11.93;;
48845;SDS011;34665;51.886;5.436;2022-08-19T00:48:15;17.52;;;12.30;;
48845;SDS011;34665;51.886;5.436;2022-08-19T00:50:42;19.93;;;11.80;;
48845;SDS011;34665;51.886;5.436;2022-08-19T00:53:10;19.40;;;11.27;;
48845;SDS011;34665;51.886;5.436;2022-08-19T00:55:37;17.00;;;11.33;;
48845;SDS011;34665;51.886;5.436;2022-08-19T00:58:06;15.27;;;11.13;;
48845;SDS011;34665;51.886;5.436;2022-08-19T01:00:36;18.57;;;11.97;;
48845;SDS011;34665;51.886;5.436;2022-08-19T01:05:32;20.60;;;12.10;;
48845;SDS011;34665;51.886;5.436;2022-08-19T01:10:27;25.80;;;15.37;;
48845;SDS011;34665;51.886;5.436;2022-08-19T01:12:57;25.47;;;16.03;;
48845;SDS011;34665;51.886;5.436;2022-08-19T01:15:26;26.53;;;16.80;;
48845;SDS011;34665;51.886;5.436;2022-08-19T01:17:55;31.37;;;17.07;;
48845;SDS011;34665;51.886;5.436;2022-08-19T01:20:25;26.80;;;15.53;;
48845;SDS011;34665;51.886;5.436;2022-08-19T01:25:20;24.97;;;14.57;;
48845;SDS011;34665;51.886;5.436;2022-08-19T01:27:50;30.77;;;16.20;;
48845;SDS011;34665;51.886;5.436;2022-08-19T01:30:27;26.67;;;14.82;;
48845;SDS011;34665;51.886;5.436;2022-08-19T01:32:54;26.33;;;15.07;;
48845;SDS011;34665;51.886;5.436;2022-08-19T01:35:22;24.80;;;15.97;;
48845;SDS011;34665;51.886;5.436;2022-08-19T01:37:51;23.90;;;16.70;;
48845;SDS011;34665;51.886;5.436;2022-08-19T01:40:22;26.17;;;16.87;;
48845;SDS011;34665;51.886;5.436;2022-08-19T01:42:50;32.53;;;17.70;;
48845;SDS011;34665;51.886;5.436;2022-08-19T01:45:16;24.95;;;16.58;;
48845;SDS011;34665;51.886;5.436;2022-08-19T01:47:43;24.77;;;16.47;;
48845;SDS011;34665;51.886;5.436;2022-08-19T01:50:09;26.40;;;17.15;;
48845;SDS011;34665;51.886;5.436;2022-08-19T01:52:37;27.30;;;17.00;;
48845;SDS011;34665;51.886;5.436;2022-08-19T01:55:04;23.70;;;16.77;;
48845;SDS011;34665;51.886;5.436;2022-08-19T01:57:32;25.83;;;18.50;;
48845;SDS011;34665;51.886;5.436;2022-08-19T02:02:25;28.65;;;17.20;;
48845;SDS011;34665;51.886;5.436;2022-08-19T02:04:51;26.35;;;17.05;;
48845;SDS011;34665;51.886;5.436;2022-08-19T02:07:18;26.27;;;15.27;;
48845;SDS011;34665;51.886;5.436;2022-08-19T02:09:46;26.10;;;17.23;;
48845;SDS011;34665;51.886;5.436;2022-08-19T02:12:13;23.20;;;15.97;;
48845;SDS011;34665;51.886;5.436;2022-08-19T02:14:40;25.20;;;16.77;;
48845;SDS011;34665;51.886;5.436;2022-08-19T02:17:05;24.92;;;17.05;;
48845;SDS011;34665;51.886;5.436;2022-08-19T02:19:31;27.67;;;18.10;;
48845;SDS011;34665;51.886;5.436;2022-08-19T02:21:59;26.90;;;16.97;;
48845;SDS011;34665;51.886;5.436;2022-08-19T02:24:25;28.00;;;17.15;;
48845;SDS011;34665;51.886;5.436;2022-08-19T02:26:52;26.23;;;17.17;;
48845;SDS011;34665;51.886;5.436;2022-08-19T02:29:19;24.73;;;17.70;;
48845;SDS011;34665;51.886;5.436;2022-08-19T02:34:10;27.93;;;17.90;;
48845;SDS011;34665;51.886;5.436;2022-08-19T02:36:36;29.95;;;16.67;;
48845;SDS011;34665;51.886;5.436;2022-08-19T02:39:02;27.27;;;17.97;;
48845;SDS011;34665;51.886;5.436;2022-08-19T02:41:29;25.92;;;17.85;;
48845;SDS011;34665;51.886;5.436;2022-08-19T02:43:58;27.47;;;17.77;;
48845;SDS011;34665;51.886;5.436;2022-08-19T02:46:26;29.63;;;19.00;;
48845;SDS011;34665;51.886;5.436;2022-08-19T02:48:55;27.50;;;17.70;;
48845;SDS011;34665;51.886;5.436;2022-08-19T02:51:24;31.60;;;20.00;;
48845;SDS011;34665;51.886;5.436;2022-08-19T02:53:52;37.40;;;20.40;;
48845;SDS011;34665;51.886;5.436;2022-08-19T02:58:44;32.70;;;20.03;;
48845;SDS011;34665;51.886;5.436;2022-08-19T03:01:18;37.67;;;21.70;;
48845;SDS011;34665;51.886;5.436;2022-08-19T03:03:52;31.87;;;20.23;;
48845;SDS011;34665;51.886;5.436;2022-08-19T03:08:44;38.90;;;22.30;;
48845;SDS011;34665;51.886;5.436;2022-08-19T03:13:43;48.13;;;23.10;;
48845;SDS011;34665;51.886;5.436;2022-08-19T03:18:35;40.33;;;22.30;;
48845;SDS011;34665;51.886;5.436;2022-08-19T03:21:01;37.60;;;21.88;;
48845;SDS011;34665;51.886;5.436;2022-08-19T03:25:53;42.03;;;23.60;;
48845;SDS011;34665;51.886;5.436;2022-08-19T03:30:59;41.50;;;22.07;;
48845;SDS011;34665;51.886;5.436;2022-08-19T03:33:28;39.23;;;23.07;;
48845;SDS011;34665;51.886;5.436;2022-08-19T03:36:02;39.57;;;23.50;;
48845;SDS011;34665;51.886;5.436;2022-08-19T03:38:28;44.23;;;24.67;;
48845;SDS011;34665;51.886;5.436;2022-08-19T03:40:53;46.50;;;23.60;;
48845;SDS011;34665;51.886;5.436;2022-08-19T03:43:18;39.07;;;22.80;;
48845;SDS011;34665;51.886;5.436;2022-08-19T03:45:44;40.33;;;23.52;;
48845;SDS011;34665;51.886;5.436;2022-08-19T03:48:10;40.90;;;24.10;;
48845;SDS011;34665;51.886;5.436;2022-08-19T03:50:38;47.40;;;25.50;;
48845;SDS011;34665;51.886;5.436;2022-08-19T03:53:06;47.07;;;25.27;;
48845;SDS011;34665;51.886;5.436;2022-08-19T03:57:57;44.17;;;24.10;;
48845;SDS011;34665;51.886;5.436;2022-08-19T04:02:49;50.57;;;25.90;;
48845;SDS011;34665;51.886;5.436;2022-08-19T04:05:15;42.70;;;23.42;;
48845;SDS011;34665;51.886;5.436;2022-08-19T04:07:40;40.83;;;21.77;;
48845;SDS011;34665;51.886;5.436;2022-08-19T04:10:06;36.60;;;20.55;;
48845;SDS011;34665;51.886;5.436;2022-08-19T04:12:32;35.47;;;20.27;;
48845;SDS011;34665;51.886;5.436;2022-08-19T04:14:57;33.17;;;18.67;;
48845;SDS011;34665;51.886;5.436;2022-08-19T04:17:23;30.95;;;18.38;;
48845;SDS011;34665;51.886;5.436;2022-08-19T04:22:14;36.33;;;19.57;;
48845;SDS011;34665;51.886;5.436;2022-08-19T04:24:40;40.85;;;21.85;;
48845;SDS011;34665;51.886;5.436;2022-08-19T04:27:06;44.80;;;24.63;;
48845;SDS011;34665;51.886;5.436;2022-08-19T04:29:32;46.38;;;23.92;;
48845;SDS011;34665;51.886;5.436;2022-08-19T04:31:58;44.87;;;24.40;;
48845;SDS011;34665;51.886;5.436;2022-08-19T04:34:25;59.40;;;30.25;;
48845;SDS011;34665;51.886;5.436;2022-08-19T04:36:53;66.00;;;30.67;;
48845;SDS011;34665;51.886;5.436;2022-08-19T04:39:21;33.60;;;18.90;;
48845;SDS011;34665;51.886;5.436;2022-08-19T04:42:10;46.13;;;25.77;;
48845;SDS011;34665;51.886;5.436;2022-08-19T04:44:54;44.77;;;24.50;;
48845;SDS011;34665;51.886;5.436;2022-08-19T04:47:20;50.80;;;26.58;;
48845;SDS011;34665;51.886;5.436;2022-08-19T04:49:45;64.45;;;32.97;;
48845;SDS011;34665;51.886;5.436;2022-08-19T04:52:11;82.55;;;42.78;;
48845;SDS011;34665;51.886;5.436;2022-08-19T04:54:36;63.33;;;34.35;;
48845;SDS011;34665;51.886;5.436;2022-08-19T04:57:02;59.75;;;30.13;;
48845;SDS011;34665;51.886;5.436;2022-08-19T05:01:53;44.00;;;21.97;;
48845;SDS011;34665;51.886;5.436;2022-08-19T05:04:20;50.45;;;26.38;;
48845;SDS011;34665;51.886;5.436;2022-08-19T05:06:46;70.45;;;36.50;;
48845;SDS011;34665;51.886;5.436;2022-08-19T05:09:14;125.37;;;20.23;;
48845;SDS011;34665;51.886;5.436;2022-08-19T05:11:41;50.70;;;25.33;;
48845;SDS011;34665;51.886;5.436;2022-08-19T05:14:08;132.40;;;22.37;;
48845;SDS011;34665;51.886;5.436;2022-08-19T05:16:34;218.97;;;22.23;;
48845;SDS011;34665;51.886;5.436;2022-08-19T05:19:00;62.28;;;27.17;;
48845;SDS011;34665;51.886;5.436;2022-08-19T05:21:44;122.93;;;23.03;;
48845;SDS011;34665;51.886;5.436;2022-08-19T05:24:30;163.63;;;21.57;;
48845;SDS011;34665;51.886;5.436;2022-08-19T05:26:59;119.30;;;20.17;;
48845;SDS011;34665;51.886;5.436;2022-08-19T05:29:28;51.50;;;19.37;;
48845;SDS011;34665;51.886;5.436;2022-08-19T05:31:57;60.23;;;26.13;;
48845;SDS011;34665;51.886;5.436;2022-08-19T05:34:24;57.23;;;31.47;;
48845;SDS011;34665;51.886;5.436;2022-08-19T05:39:21;66.23;;;33.87;;
48845;SDS011;34665;51.886;5.436;2022-08-19T05:41:49;74.20;;;36.13;;
48845;SDS011;34665;51.886;5.436;2022-08-19T05:44:18;70.80;;;37.03;;
48845;SDS011;34665;51.886;5.436;2022-08-19T05:46:45;68.43;;;37.13;;
48845;SDS011;34665;51.886;5.436;2022-08-19T05:49:12;72.80;;;36.93;;
48845;SDS011;34665;51.886;5.436;2022-08-19T05:51:39;72.27;;;37.23;;
48845;SDS011;34665;51.886;5.436;2022-08-19T05:54:05;77.22;;;39.15;;
48845;SDS011;34665;51.886;5.436;2022-08-19T05:56:34;77.87;;;40.10;;
48845;SDS011;34665;51.886;5.436;2022-08-19T05:59:07;71.30;;;38.67;;
48845;SDS011;34665;51.886;5.436;2022-08-19T06:01:38;82.03;;;40.57;;
48845;SDS011;34665;51.886;5.436;2022-08-19T06:04:04;76.23;;;41.13;;
48845;SDS011;34665;51.886;5.436;2022-08-19T06:06:31;79.67;;;40.23;;
48845;SDS011;34665;51.886;5.436;2022-08-19T06:08:59;80.13;;;40.63;;
48845;SDS011;34665;51.886;5.436;2022-08-19T06:11:36;87.27;;;42.73;;
48845;SDS011;34665;51.886;5.436;2022-08-19T06:14:30;87.67;;;41.97;;
48845;SDS011;34665;51.886;5.436;2022-08-19T06:17:00;88.10;;;43.63;;
48845;SDS011;34665;51.886;5.436;2022-08-19T06:19:27;92.23;;;44.17;;
48845;SDS011;34665;51.886;5.436;2022-08-19T06:21:55;107.07;;;46.67;;
48845;SDS011;34665;51.886;5.436;2022-08-19T06:24:23;103.33;;;47.00;;
48845;SDS011;34665;51.886;5.436;2022-08-19T06:26:50;105.37;;;48.17;;
48845;SDS011;34665;51.886;5.436;2022-08-19T06:29:17;105.27;;;48.60;;
48845;SDS011;34665;51.886;5.436;2022-08-19T06:31:44;116.30;;;50.97;;
48845;SDS011;34665;51.886;5.436;2022-08-19T06:34:14;112.63;;;50.30;;
48845;SDS011;34665;51.886;5.436;2022-08-19T06:36:42;109.60;;;48.03;;
48845;SDS011;34665;51.886;5.436;2022-08-19T06:39:14;104.30;;;48.40;;
48845;SDS011;34665;51.886;5.436;2022-08-19T06:41:43;104.10;;;47.27;;
48845;SDS011;34665;51.886;5.436;2022-08-19T06:44:15;107.33;;;49.80;;
48845;SDS011;34665;51.886;5.436;2022-08-19T06:46:42;114.77;;;51.20;;
48845;SDS011;34665;51.886;5.436;2022-08-19T06:49:09;110.63;;;50.50;;
48845;SDS011;34665;51.886;5.436;2022-08-19T06:51:39;109.37;;;48.57;;
48845;SDS011;34665;51.886;5.436;2022-08-19T06:54:10;108.17;;;49.50;;
48845;SDS011;34665;51.886;5.436;2022-08-19T06:59:03;100.20;;;47.10;;
48845;SDS011;34665;51.886;5.436;2022-08-19T07:01:31;101.53;;;47.20;;
48845;SDS011;34665;51.886;5.436;2022-08-19T07:04:00;106.53;;;47.73;;
48845;SDS011;34665;51.886;5.436;2022-08-19T07:06:25;101.47;;;46.17;;
48845;SDS011;34665;51.886;5.436;2022-08-19T07:08:50;93.50;;;45.00;;
48845;SDS011;34665;51.886;5.436;2022-08-19T07:11:17;100.03;;;44.20;;
48845;SDS011;34665;51.886;5.436;2022-08-19T07:13:44;96.77;;;42.77;;
48845;SDS011;34665;51.886;5.436;2022-08-19T07:16:13;89.03;;;42.17;;
48845;SDS011;34665;51.886;5.436;2022-08-19T07:18:40;99.97;;;45.60;;
48845;SDS011;34665;51.886;5.436;2022-08-19T07:21:07;92.10;;;43.50;;
48845;SDS011;34665;51.886;5.436;2022-08-19T07:23:52;83.00;;;41.87;;
48845;SDS011;34665;51.886;5.436;2022-08-19T07:26:23;89.78;;;42.25;;
48845;SDS011;34665;51.886;5.436;2022-08-19T07:28:54;82.15;;;41.03;;
48845;SDS011;34665;51.886;5.436;2022-08-19T07:31:21;85.50;;;40.37;;
48845;SDS011;34665;51.886;5.436;2022-08-19T07:33:49;80.20;;;39.10;;
48845;SDS011;34665;51.886;5.436;2022-08-19T07:36:18;74.23;;;38.83;;
48845;SDS011;34665;51.886;5.436;2022-08-19T07:38:46;73.03;;;37.57;;
48845;SDS011;34665;51.886;5.436;2022-08-19T07:41:15;79.47;;;37.23;;
48845;SDS011;34665;51.886;5.436;2022-08-19T07:43:43;65.80;;;33.97;;
48845;SDS011;34665;51.886;5.436;2022-08-19T07:46:09;68.15;;;35.25;;
48845;SDS011;34665;51.886;5.436;2022-08-19T07:48:35;71.40;;;34.27;;
48845;SDS011;34665;51.886;5.436;2022-08-19T07:51:03;75.33;;;35.10;;
48845;SDS011;34665;51.886;5.436;2022-08-19T07:53:32;64.43;;;33.70;;
48845;SDS011;34665;51.886;5.436;2022-08-19T07:55:58;65.00;;;34.22;;
48845;SDS011;34665;51.886;5.436;2022-08-19T07:58:27;66.57;;;33.40;;
48845;SDS011;34665;51.886;5.436;2022-08-19T08:00:53;60.33;;;32.87;;
48845;SDS011;34665;51.886;5.436;2022-08-19T08:06:07;71.13;;;33.80;;
48845;SDS011;34665;51.886;5.436;2022-08-19T08:08:52;63.37;;;34.50;;
48845;SDS011;34665;51.886;5.436;2022-08-19T08:11:40;68.70;;;33.83;;
48845;SDS011;34665;51.886;5.436;2022-08-19T08:14:08;60.43;;;33.20;;
48845;SDS011;34665;51.886;5.436;2022-08-19T08:16:36;58.77;;;32.27;;
48845;SDS011;34665;51.886;5.436;2022-08-19T08:19:04;60.53;;;31.27;;
48845;SDS011;34665;51.886;5.436;2022-08-19T08:21:31;65.20;;;33.10;;
48845;SDS011;34665;51.886;5.436;2022-08-19T08:23:58;56.67;;;29.83;;
48845;SDS011;34665;51.886;5.436;2022-08-19T08:26:24;53.33;;;27.67;;
48845;SDS011;34665;51.886;5.436;2022-08-19T08:28:50;57.63;;;30.33;;
48845;SDS011;34665;51.886;5.436;2022-08-19T08:31:16;64.90;;;32.67;;
48845;SDS011;34665;51.886;5.436;2022-08-19T08:33:44;71.73;;;33.10;;
48845;SDS011;34665;51.886;5.436;2022-08-19T08:36:11;68.77;;;32.33;;
48845;SDS011;34665;51.886;5.436;2022-08-19T08:38:39;63.63;;;31.90;;
48845;SDS011;34665;51.886;5.436;2022-08-19T08:41:09;64.93;;;30.93;;
48845;SDS011;34665;51.886;5.436;2022-08-19T08:43:44;60.87;;;30.90;;
48845;SDS011;34665;51.886;5.436;2022-08-19T08:46:12;61.47;;;30.53;;
48845;SDS011;34665;51.886;5.436;2022-08-19T08:51:30;56.97;;;28.73;;
48845;SDS011;34665;51.886;5.436;2022-08-19T08:54:08;72.85;;;33.88;;
48845;SDS011;34665;51.886;5.436;2022-08-19T08:56:38;60.67;;;31.03;;
48845;SDS011;34665;51.886;5.436;2022-08-19T08:59:05;68.17;;;33.90;;
48845;SDS011;34665;51.886;5.436;2022-08-19T09:01:46;62.73;;;31.17;;
48845;SDS011;34665;51.886;5.436;2022-08-19T09:04:12;70.78;;;31.73;;
48845;SDS011;34665;51.886;5.436;2022-08-19T09:06:40;66.07;;;31.27;;
48845;SDS011;34665;51.886;5.436;2022-08-19T09:09:29;56.93;;;26.77;;
48845;SDS011;34665;51.886;5.436;2022-08-19T09:15:05;46.87;;;23.87;;
48845;SDS011;34665;51.886;5.436;2022-08-19T09:17:33;41.27;;;23.30;;
48845;SDS011;34665;51.886;5.436;2022-08-19T09:20:04;48.80;;;25.33;;
48845;SDS011;34665;51.886;5.436;2022-08-19T09:22:49;51.43;;;24.90;;
48845;SDS011;34665;51.886;5.436;2022-08-19T09:25:17;50.63;;;26.77;;
48845;SDS011;34665;51.886;5.436;2022-08-19T09:27:47;51.60;;;24.87;;
48845;SDS011;34665;51.886;5.436;2022-08-19T09:30:17;46.93;;;25.23;;
48845;SDS011;34665;51.886;5.436;2022-08-19T09:32:44;50.80;;;23.60;;
48845;SDS011;34665;51.886;5.436;2022-08-19T09:35:10;49.97;;;25.80;;
48845;SDS011;34665;51.886;5.436;2022-08-19T09:37:43;49.20;;;24.77;;
48845;SDS011;34665;51.886;5.436;2022-08-19T09:42:37;48.47;;;22.33;;
48845;SDS011;34665;51.886;5.436;2022-08-19T09:45:03;42.10;;;22.03;;
48845;SDS011;34665;51.886;5.436;2022-08-19T09:47:30;46.73;;;22.90;;
48845;SDS011;34665;51.886;5.436;2022-08-19T09:49:57;41.70;;;22.30;;
48845;SDS011;34665;51.886;5.436;2022-08-19T09:54:51;42.50;;;23.10;;
48845;SDS011;34665;51.886;5.436;2022-08-19T09:57:18;41.40;;;21.77;;
48845;SDS011;34665;51.886;5.436;2022-08-19T09:59:44;42.00;;;24.37;;
48845;SDS011;34665;51.886;5.436;2022-08-19T10:02:10;46.80;;;25.30;;
48845;SDS011;34665;51.886;5.436;2022-08-19T10:04:36;45.80;;;25.13;;
48845;SDS011;34665;51.886;5.436;2022-08-19T10:07:20;52.50;;;23.73;;
48845;SDS011;34665;51.886;5.436;2022-08-19T10:09:47;48.17;;;23.73;;
48845;SDS011;34665;51.886;5.436;2022-08-19T10:14:39;41.88;;;22.42;;
48845;SDS011;34665;51.886;5.436;2022-08-19T10:17:04;47.63;;;24.90;;
48845;SDS011;34665;51.886;5.436;2022-08-19T10:19:30;42.42;;;22.33;;
48845;SDS011;34665;51.886;5.436;2022-08-19T10:21:57;51.90;;;24.73;;
48845;SDS011;34665;51.886;5.436;2022-08-19T10:26:49;48.10;;;23.63;;
48845;SDS011;34665;51.886;5.436;2022-08-19T10:31:41;50.30;;;25.63;;
48845;SDS011;34665;51.886;5.436;2022-08-19T10:34:07;50.57;;;25.77;;
48845;SDS011;34665;51.886;5.436;2022-08-19T10:39:01;51.20;;;25.50;;
48845;SDS011;34665;51.886;5.436;2022-08-19T10:41:31;46.80;;;24.80;;
48845;SDS011;34665;51.886;5.436;2022-08-19T10:43:59;50.27;;;25.97;;
48845;SDS011;34665;51.886;5.436;2022-08-19T10:46:27;41.83;;;23.67;;
48845;SDS011;34665;51.886;5.436;2022-08-19T10:48:57;55.37;;;25.80;;
48845;SDS011;34665;51.886;5.436;2022-08-19T10:51:24;54.37;;;25.93;;
48845;SDS011;34665;51.886;5.436;2022-08-19T10:54:08;44.67;;;23.47;;
48845;SDS011;34665;51.886;5.436;2022-08-19T10:59:22;42.37;;;24.07;;
48845;SDS011;34665;51.886;5.436;2022-08-19T11:01:53;41.65;;;24.38;;
48845;SDS011;34665;51.886;5.436;2022-08-19T11:04:23;41.17;;;23.40;;
48845;SDS011;34665;51.886;5.436;2022-08-19T11:06:49;44.15;;;24.45;;
48845;SDS011;34665;51.886;5.436;2022-08-19T11:09:19;38.35;;;21.60;;
48845;SDS011;34665;51.886;5.436;2022-08-19T11:11:51;32.88;;;20.45;;
48845;SDS011;34665;51.886;5.436;2022-08-19T11:14:18;36.47;;;21.98;;
48845;SDS011;34665;51.886;5.436;2022-08-19T11:16:45;41.47;;;20.77;;
48845;SDS011;34665;51.886;5.436;2022-08-19T11:19:12;33.80;;;20.92;;
48845;SDS011;34665;51.886;5.436;2022-08-19T11:21:42;36.13;;;20.95;;
48845;SDS011;34665;51.886;5.436;2022-08-19T11:24:15;37.88;;;23.42;;
48845;SDS011;34665;51.886;5.436;2022-08-19T11:26:45;35.50;;;21.17;;
48845;SDS011;34665;51.886;5.436;2022-08-19T11:29:13;37.90;;;20.90;;
48845;SDS011;34665;51.886;5.436;2022-08-19T11:31:40;41.47;;;21.55;;
48845;SDS011;34665;51.886;5.436;2022-08-19T11:34:09;34.50;;;21.00;;
48845;SDS011;34665;51.886;5.436;2022-08-19T11:36:39;30.52;;;18.67;;
48845;SDS011;34665;51.886;5.436;2022-08-19T11:39:07;29.83;;;18.15;;
48845;SDS011;34665;51.886;5.436;2022-08-19T11:41:35;24.27;;;16.98;;
48845;SDS011;34665;51.886;5.436;2022-08-19T11:44:01;28.80;;;17.27;;
48845;SDS011;34665;51.886;5.436;2022-08-19T11:46:28;30.15;;;17.20;;
48845;SDS011;34665;51.886;5.436;2022-08-19T11:48:55;29.90;;;16.17;;
48845;SDS011;34665;51.886;5.436;2022-08-19T11:51:23;34.28;;;18.02;;
48845;SDS011;34665;51.886;5.436;2022-08-19T11:53:52;27.25;;;16.88;;
48845;SDS011;34665;51.886;5.436;2022-08-19T11:56:21;26.67;;;16.80;;
48845;SDS011;34665;51.886;5.436;2022-08-19T11:58:49;28.20;;;17.10;;
48845;SDS011;34665;51.886;5.436;2022-08-19T12:01:16;30.85;;;17.73;;
48845;SDS011;34665;51.886;5.436;2022-08-19T12:03:43;27.08;;;16.50;;
48845;SDS011;34665;51.886;5.436;2022-08-19T12:06:11;28.73;;;17.98;;
48845;SDS011;34665;51.886;5.436;2022-08-19T12:08:40;26.58;;;17.42;;
48845;SDS011;34665;51.886;5.436;2022-08-19T12:11:06;24.10;;;15.40;;
48845;SDS011;34665;51.886;5.436;2022-08-19T12:13:36;25.23;;;17.98;;
48845;SDS011;34665;51.886;5.436;2022-08-19T12:16:07;29.40;;;18.73;;
48845;SDS011;34665;51.886;5.436;2022-08-19T12:18:37;34.10;;;19.27;;
48845;SDS011;34665;51.886;5.436;2022-08-19T12:21:03;29.65;;;17.80;;
48845;SDS011;34665;51.886;5.436;2022-08-19T12:23:29;32.80;;;20.13;;
48845;SDS011;34665;51.886;5.436;2022-08-19T12:25:55;35.22;;;20.20;;
48845;SDS011;34665;51.886;5.436;2022-08-19T12:28:22;33.03;;;20.63;;
48845;SDS011;34665;51.886;5.436;2022-08-19T12:30:49;32.13;;;19.02;;
48845;SDS011;34665;51.886;5.436;2022-08-19T12:33:16;36.88;;;20.65;;
48845;SDS011;34665;51.886;5.436;2022-08-19T12:35:44;35.40;;;19.02;;
48845;SDS011;34665;51.886;5.436;2022-08-19T12:38:12;33.95;;;20.35;;
48845;SDS011;34665;51.886;5.436;2022-08-19T12:40:39;34.90;;;19.10;;
48845;SDS011;34665;51.886;5.436;2022-08-19T12:43:05;30.55;;;18.92;;
48845;SDS011;34665;51.886;5.436;2022-08-19T12:45:31;28.48;;;17.90;;
48845;SDS011;34665;51.886;5.436;2022-08-19T12:47:58;34.90;;;18.77;;
48845;SDS011;34665;51.886;5.436;2022-08-19T12:50:24;39.70;;;20.83;;
48845;SDS011;34665;51.886;5.436;2022-08-19T12:52:50;37.17;;;20.10;;
48845;SDS011;34665;51.886;5.436;2022-08-19T12:57:41;22.52;;;13.63;;
48845;SDS011;34665;51.886;5.436;2022-08-19T13:02:39;21.27;;;12.82;;
48845;SDS011;34665;51.886;5.436;2022-08-19T13:05:07;21.70;;;12.05;;
48845;SDS011;34665;51.886;5.436;2022-08-19T13:07:35;19.88;;;11.15;;
48845;SDS011;34665;51.886;5.436;2022-08-19T13:10:04;29.33;;;10.90;;
48845;SDS011;34665;51.886;5.436;2022-08-19T13:12:31;16.00;;;9.10;;
48845;SDS011;34665;51.886;5.436;2022-08-19T13:14:56;19.92;;;9.63;;
48845;SDS011;34665;51.886;5.436;2022-08-19T13:17:22;17.63;;;10.45;;
48845;SDS011;34665;51.886;5.436;2022-08-19T13:19:48;18.48;;;9.50;;
48845;SDS011;34665;51.886;5.436;2022-08-19T13:22:15;14.15;;;8.52;;
48845;SDS011;34665;51.886;5.436;2022-08-19T13:24:41;12.98;;;8.18;;
48845;SDS011;34665;51.886;5.436;2022-08-19T13:27:08;16.35;;;7.75;;
48845;SDS011;34665;51.886;5.436;2022-08-19T13:29:34;17.92;;;7.40;;
48845;SDS011;34665;51.886;5.436;2022-08-19T13:32:19;11.60;;;5.80;;
48845;SDS011;34665;51.886;5.436;2022-08-19T13:35:03;9.10;;;5.65;;
48845;SDS011;34665;51.886;5.436;2022-08-19T13:37:30;11.35;;;5.63;;
48845;SDS011;34665;51.886;5.436;2022-08-19T13:40:09;6.40;;;3.80;;
48845;SDS011;34665;51.886;5.436;2022-08-19T13:42:41;7.47;;;5.13;;
48845;SDS011;34665;51.886;5.436;2022-08-19T13:45:08;9.32;;;6.25;;
48845;SDS011;34665;51.886;5.436;2022-08-19T13:47:34;13.63;;;7.85;;
48845;SDS011;34665;51.886;5.436;2022-08-19T13:50:03;17.23;;;11.48;;
48845;SDS011;34665;51.886;5.436;2022-08-19T13:52:29;19.88;;;13.52;;
48845;SDS011;34665;51.886;5.436;2022-08-19T13:54:55;22.63;;;14.77;;
48845;SDS011;34665;51.886;5.436;2022-08-19T13:57:21;19.33;;;12.88;;
48845;SDS011;34665;51.886;5.436;2022-08-19T13:59:47;21.05;;;13.10;;
48845;SDS011;34665;51.886;5.436;2022-08-19T14:02:13;19.05;;;11.50;;
48845;SDS011;34665;51.886;5.436;2022-08-19T14:04:38;21.35;;;12.52;;
48845;SDS011;34665;51.886;5.436;2022-08-19T14:07:04;16.33;;;10.52;;
48845;SDS011;34665;51.886;5.436;2022-08-19T14:09:29;12.88;;;8.23;;
48845;SDS011;34665;51.886;5.436;2022-08-19T14:11:56;18.52;;;9.70;;
48845;SDS011;34665;51.886;5.436;2022-08-19T14:14:21;12.73;;;8.10;;
48845;SDS011;34665;51.886;5.436;2022-08-19T14:16:47;15.63;;;8.02;;
48845;SDS011;34665;51.886;5.436;2022-08-19T14:19:13;11.77;;;6.75;;
48845;SDS011;34665;51.886;5.436;2022-08-19T14:21:39;12.05;;;7.85;;
48845;SDS011;34665;51.886;5.436;2022-08-19T14:24:07;11.07;;;7.25;;
48845;SDS011;34665;51.886;5.436;2022-08-19T14:26:33;10.80;;;6.43;;
48845;SDS011;34665;51.886;5.436;2022-08-19T14:28:59;8.05;;;5.03;;
48845;SDS011;34665;51.886;5.436;2022-08-19T14:31:24;4.28;;;3.22;;
48845;SDS011;34665;51.886;5.436;2022-08-19T14:33:51;5.93;;;3.15;;
48845;SDS011;34665;51.886;5.436;2022-08-19T14:36:18;4.20;;;2.25;;
48845;SDS011;34665;51.886;5.436;2022-08-19T14:38:46;4.60;;;2.78;;
48845;SDS011;34665;51.886;5.436;2022-08-19T14:41:16;5.25;;;2.78;;
48845;SDS011;34665;51.886;5.436;2022-08-19T14:43:46;6.05;;;3.05;;
48845;SDS011;34665;51.886;5.436;2022-08-19T14:46:18;4.13;;;2.60;;
48845;SDS011;34665;51.886;5.436;2022-08-19T14:48:47;4.13;;;2.87;;
48845;SDS011;34665;51.886;5.436;2022-08-19T14:51:15;4.43;;;2.92;;
48845;SDS011;34665;51.886;5.436;2022-08-19T14:53:43;5.40;;;2.72;;
48845;SDS011;34665;51.886;5.436;2022-08-19T14:58:36;6.68;;;2.95;;
48845;SDS011;34665;51.886;5.436;2022-08-19T15:01:01;3.33;;;2.07;;
48845;SDS011;34665;51.886;5.436;2022-08-19T15:03:28;5.17;;;2.97;;
48845;SDS011;34665;51.886;5.436;2022-08-19T15:05:54;3.92;;;2.42;;
48845;SDS011;34665;51.886;5.436;2022-08-19T15:08:22;2.80;;;2.00;;
48845;SDS011;34665;51.886;5.436;2022-08-19T15:10:50;3.17;;;1.95;;
48845;SDS011;34665;51.886;5.436;2022-08-19T15:13:17;3.10;;;1.90;;
48845;SDS011;34665;51.886;5.436;2022-08-19T15:15:43;5.80;;;2.10;;
48845;SDS011;34665;51.886;5.436;2022-08-19T15:20:34;4.10;;;2.13;;
48845;SDS011;34665;51.886;5.436;2022-08-19T15:25:26;6.30;;;2.87;;
48845;SDS011;34665;51.886;5.436;2022-08-19T15:27:52;5.77;;;2.73;;
48845;SDS011;34665;51.886;5.436;2022-08-19T15:30:22;8.53;;;2.80;;
48845;SDS011;34665;51.886;5.436;2022-08-19T15:32:49;4.57;;;2.38;;
48845;SDS011;34665;51.886;5.436;2022-08-19T15:35:18;47.30;;;20.85;;
48845;SDS011;34665;51.886;5.436;2022-08-19T15:37:47;18.10;;;9.00;;
48845;SDS011;34665;51.886;5.436;2022-08-19T15:40:16;7.20;;;4.50;;
48845;SDS011;34665;51.886;5.436;2022-08-19T15:42:43;6.10;;;3.35;;
48845;SDS011;34665;51.886;5.436;2022-08-19T15:45:09;6.80;;;3.58;;
48845;SDS011;34665;51.886;5.436;2022-08-19T15:47:36;7.75;;;4.63;;
48845;SDS011;34665;51.886;5.436;2022-08-19T15:52:32;8.73;;;3.30;;
48845;SDS011;34665;51.886;5.436;2022-08-19T15:54:58;4.65;;;3.72;;
48845;SDS011;34665;51.886;5.436;2022-08-19T15:57:24;8.90;;;4.38;;
48845;SDS011;34665;51.886;5.436;2022-08-19T15:59:50;9.70;;;5.22;;